sensor_id;sensor_type;location;lat;lon;timestamp;temperature;humidity
74657;DHT22;63185;45.642;13.764;2023-03-23T00:02:29;15.00;53.00
74657;DHT22;63185;45.642;13.764;2023-03-23T00:04:58;15.10;52.20
74657;DHT22;63185;45.642;13.764;2023-03-23T00:07:26;15.00;52.40
74657;DHT22;63185;45.642;13.764;2023-03-23T00:09:53;15.00;52.40
74657;DHT22;63185;45.642;13.764;2023-03-23T00:12:24;14.90;52.70
74657;DHT22;63185;45.642;13.764;2023-03-23T00:15:08;14.90;53.60
74657;DHT22;63185;45.642;13.764;2023-03-23T00:17:39;14.80;54.10
74657;DHT22;63185;45.642;13.764;2023-03-23T00:20:06;14.80;54.30
74657;DHT22;63185;45.642;13.764;2023-03-23T00:22:33;14.70;54.70
74657;DHT22;63185;45.642;13.764;2023-03-23T00:25:04;14.70;54.50
74657;DHT22;63185;45.642;13.764;2023-03-23T00:27:29;14.60;54.70
74657;DHT22;63185;45.642;13.764;2023-03-23T00:29:56;14.70;54.80
74657;DHT22;63185;45.642;13.764;2023-03-23T00:32:24;14.60;55.00
74657;DHT22;63185;45.642;13.764;2023-03-23T00:34:53;14.70;55.10
74657;DHT22;63185;45.642;13.764;2023-03-23T00:37:19;14.60;55.10
74657;DHT22;63185;45.642;13.764;2023-03-23T00:39:45;14.60;55.40
74657;DHT22;63185;45.642;13.764;2023-03-23T00:42:13;14.50;55.50
74657;DHT22;63185;45.642;13.764;2023-03-23T00:44:39;14.60;55.50
74657;DHT22;63185;45.642;13.764;2023-03-23T00:47:05;14.50;55.20
74657;DHT22;63185;45.642;13.764;2023-03-23T00:49:33;14.50;55.60
74657;DHT22;63185;45.642;13.764;2023-03-23T00:52:00;14.50;55.70
74657;DHT22;63185;45.642;13.764;2023-03-23T00:54:26;14.50;55.90
74657;DHT22;63185;45.642;13.764;2023-03-23T00:56:52;14.50;55.70
74657;DHT22;63185;45.642;13.764;2023-03-23T00:59:19;14.50;55.50
74657;DHT22;63185;45.642;13.764;2023-03-23T01:01:45;14.50;55.10
74657;DHT22;63185;45.642;13.764;2023-03-23T01:04:11;14.50;54.80
74657;DHT22;63185;45.642;13.764;2023-03-23T01:06:40;14.50;54.80
74657;DHT22;63185;45.642;13.764;2023-03-23T01:09:07;14.40;54.90
74657;DHT22;63185;45.642;13.764;2023-03-23T01:11:34;14.50;54.70
74657;DHT22;63185;45.642;13.764;2023-03-23T01:14:00;14.50;54.20
74657;DHT22;63185;45.642;13.764;2023-03-23T01:16:27;14.50;54.10
74657;DHT22;63185;45.642;13.764;2023-03-23T01:18:53;14.50;53.50
74657;DHT22;63185;45.642;13.764;2023-03-23T01:21:19;14.50;52.90
74657;DHT22;63185;45.642;13.764;2023-03-23T01:23:46;14.50;52.60
74657;DHT22;63185;45.642;13.764;2023-03-23T01:26:17;14.50;52.60
74657;DHT22;63185;45.642;13.764;2023-03-23T01:28:43;14.60;52.90
74657;DHT22;63185;45.642;13.764;2023-03-23T01:31:21;14.60;54.20
74657;DHT22;63185;45.642;13.764;2023-03-23T01:33:47;14.60;54.30
74657;DHT22;63185;45.642;13.764;2023-03-23T01:36:20;14.60;54.00
74657;DHT22;63185;45.642;13.764;2023-03-23T01:38:48;14.50;54.20
74657;DHT22;63185;45.642;13.764;2023-03-23T01:41:15;14.50;54.30
74657;DHT22;63185;45.642;13.764;2023-03-23T01:46:43;14.40;54.40
74657;DHT22;63185;45.642;13.764;2023-03-23T01:51:43;14.30;54.60
74657;DHT22;63185;45.642;13.764;2023-03-23T01:54:13;14.40;54.80
74657;DHT22;63185;45.642;13.764;2023-03-23T01:56:44;14.40;54.90
74657;DHT22;63185;45.642;13.764;2023-03-23T01:59:11;14.40;55.10
74657;DHT22;63185;45.642;13.764;2023-03-23T02:01:39;14.30;54.90
74657;DHT22;63185;45.642;13.764;2023-03-23T02:04:11;14.30;55.20
74657;DHT22;63185;45.642;13.764;2023-03-23T02:06:38;14.30;55.40
74657;DHT22;63185;45.642;13.764;2023-03-23T02:09:04;14.30;55.50
74657;DHT22;63185;45.642;13.764;2023-03-23T02:11:31;14.30;55.60
74657;DHT22;63185;45.642;13.764;2023-03-23T02:13:57;14.30;55.70
74657;DHT22;63185;45.642;13.764;2023-03-23T02:16:29;14.30;55.70
74657;DHT22;63185;45.642;13.764;2023-03-23T02:27:13;14.20;55.90
74657;DHT22;63185;45.642;13.764;2023-03-23T02:29:55;14.20;56.20
74657;DHT22;63185;45.642;13.764;2023-03-23T02:35:37;14.10;56.90
74657;DHT22;63185;45.642;13.764;2023-03-23T02:38:08;14.10;56.80
74657;DHT22;63185;45.642;13.764;2023-03-23T02:40:42;14.10;56.80
74657;DHT22;63185;45.642;13.764;2023-03-23T02:43:13;14.10;56.50
74657;DHT22;63185;45.642;13.764;2023-03-23T02:45:42;14.10;56.30
74657;DHT22;63185;45.642;13.764;2023-03-23T02:48:10;14.10;56.10
74657;DHT22;63185;45.642;13.764;2023-03-23T02:50:38;14.10;55.90
74657;DHT22;63185;45.642;13.764;2023-03-23T02:53:09;14.10;56.00
74657;DHT22;63185;45.642;13.764;2023-03-23T02:55:38;14.10;56.00
74657;DHT22;63185;45.642;13.764;2023-03-23T02:58:10;14.10;55.90
74657;DHT22;63185;45.642;13.764;2023-03-23T03:00:36;14.20;55.80
74657;DHT22;63185;45.642;13.764;2023-03-23T03:03:03;14.10;56.00
74657;DHT22;63185;45.642;13.764;2023-03-23T03:05:38;14.10;55.90
74657;DHT22;63185;45.642;13.764;2023-03-23T03:08:39;14.20;55.40
74657;DHT22;63185;45.642;13.764;2023-03-23T03:11:08;14.20;55.00
74657;DHT22;63185;45.642;13.764;2023-03-23T03:21:38;14.30;55.40
74657;DHT22;63185;45.642;13.764;2023-03-23T03:24:07;14.30;55.30
74657;DHT22;63185;45.642;13.764;2023-03-23T03:26:39;14.30;55.50
74657;DHT22;63185;45.642;13.764;2023-03-23T03:29:07;14.20;55.50
74657;DHT22;63185;45.642;13.764;2023-03-23T03:31:36;14.10;55.70
74657;DHT22;63185;45.642;13.764;2023-03-23T03:34:03;14.20;56.20
74657;DHT22;63185;45.642;13.764;2023-03-23T03:36:31;14.10;55.80
74657;DHT22;63185;45.642;13.764;2023-03-23T03:39:05;14.20;54.80
74657;DHT22;63185;45.642;13.764;2023-03-23T03:41:33;14.20;54.40
74657;DHT22;63185;45.642;13.764;2023-03-23T03:43:59;14.30;55.10
74657;DHT22;63185;45.642;13.764;2023-03-23T03:46:25;14.30;55.60
74657;DHT22;63185;45.642;13.764;2023-03-23T03:48:53;14.20;55.70
74657;DHT22;63185;45.642;13.764;2023-03-23T03:51:19;14.10;56.10
74657;DHT22;63185;45.642;13.764;2023-03-23T03:53:45;14.00;56.30
74657;DHT22;63185;45.642;13.764;2023-03-23T03:56:10;14.00;56.40
74657;DHT22;63185;45.642;13.764;2023-03-23T03:58:36;13.90;56.60
74657;DHT22;63185;45.642;13.764;2023-03-23T04:01:03;13.90;56.80
74657;DHT22;63185;45.642;13.764;2023-03-23T04:03:29;13.90;57.00
74657;DHT22;63185;45.642;13.764;2023-03-23T04:05:55;13.90;57.40
74657;DHT22;63185;45.642;13.764;2023-03-23T04:08:22;13.80;57.60
74657;DHT22;63185;45.642;13.764;2023-03-23T04:10:48;13.80;58.00
74657;DHT22;63185;45.642;13.764;2023-03-23T04:13:14;13.80;58.20
74657;DHT22;63185;45.642;13.764;2023-03-23T04:15:40;13.80;58.50
74657;DHT22;63185;45.642;13.764;2023-03-23T04:18:06;13.80;57.80
74657;DHT22;63185;45.642;13.764;2023-03-23T04:20:32;13.80;57.80
74657;DHT22;63185;45.642;13.764;2023-03-23T04:23:00;13.80;58.00
74657;DHT22;63185;45.642;13.764;2023-03-23T04:25:27;13.80;58.20
74657;DHT22;63185;45.642;13.764;2023-03-23T04:27:53;13.80;58.30
74657;DHT22;63185;45.642;13.764;2023-03-23T04:30:24;13.70;58.50
74657;DHT22;63185;45.642;13.764;2023-03-23T04:32:51;13.80;58.60
74657;DHT22;63185;45.642;13.764;2023-03-23T04:35:21;13.70;58.90
74657;DHT22;63185;45.642;13.764;2023-03-23T04:37:48;13.70;59.00
74657;DHT22;63185;45.642;13.764;2023-03-23T04:40:16;13.70;58.90
74657;DHT22;63185;45.642;13.764;2023-03-23T04:42:43;13.70;58.90
74657;DHT22;63185;45.642;13.764;2023-03-23T04:45:20;13.60;59.10
74657;DHT22;63185;45.642;13.764;2023-03-23T04:47:51;13.60;59.60
74657;DHT22;63185;45.642;13.764;2023-03-23T04:50:24;13.60;59.40
74657;DHT22;63185;45.642;13.764;2023-03-23T04:52:52;13.70;58.80
74657;DHT22;63185;45.642;13.764;2023-03-23T04:55:19;13.70;58.30
74657;DHT22;63185;45.642;13.764;2023-03-23T04:57:47;13.70;57.70
74657;DHT22;63185;45.642;13.764;2023-03-23T05:00:13;13.70;56.50
74657;DHT22;63185;45.642;13.764;2023-03-23T05:02:46;13.80;56.90
74657;DHT22;63185;45.642;13.764;2023-03-23T05:05:14;13.90;56.60
74657;DHT22;63185;45.642;13.764;2023-03-23T05:07:41;13.90;56.80
74657;DHT22;63185;45.642;13.764;2023-03-23T05:10:09;13.90;56.50
74657;DHT22;63185;45.642;13.764;2023-03-23T05:12:36;13.90;56.70
74657;DHT22;63185;45.642;13.764;2023-03-23T05:15:03;13.90;56.40
74657;DHT22;63185;45.642;13.764;2023-03-23T05:17:29;14.00;55.80
74657;DHT22;63185;45.642;13.764;2023-03-23T05:19:56;14.10;55.10
74657;DHT22;63185;45.642;13.764;2023-03-23T05:22:22;14.20;54.70
74657;DHT22;63185;45.642;13.764;2023-03-23T05:24:49;14.30;54.30
74657;DHT22;63185;45.642;13.764;2023-03-23T05:27:18;14.30;54.00
74657;DHT22;63185;45.642;13.764;2023-03-23T05:29:45;14.50;53.80
74657;DHT22;63185;45.642;13.764;2023-03-23T05:32:15;14.60;53.60
74657;DHT22;63185;45.642;13.764;2023-03-23T05:34:41;14.60;53.40
74657;DHT22;63185;45.642;13.764;2023-03-23T05:37:09;14.70;53.00
74657;DHT22;63185;45.642;13.764;2023-03-23T05:39:35;14.80;53.60
74657;DHT22;63185;45.642;13.764;2023-03-23T05:42:02;14.80;54.20
74657;DHT22;63185;45.642;13.764;2023-03-23T05:44:29;14.80;54.60
74657;DHT22;63185;45.642;13.764;2023-03-23T05:46:55;14.80;54.70
74657;DHT22;63185;45.642;13.764;2023-03-23T05:49:21;14.80;53.90
74657;DHT22;63185;45.642;13.764;2023-03-23T05:51:48;14.80;53.80
74657;DHT22;63185;45.642;13.764;2023-03-23T05:54:15;14.90;53.80
74657;DHT22;63185;45.642;13.764;2023-03-23T05:56:42;14.90;53.80
74657;DHT22;63185;45.642;13.764;2023-03-23T05:59:08;15.00;53.20
74657;DHT22;63185;45.642;13.764;2023-03-23T06:01:37;15.00;53.50
74657;DHT22;63185;45.642;13.764;2023-03-23T06:04:03;15.10;53.50
74657;DHT22;63185;45.642;13.764;2023-03-23T06:06:29;15.10;53.80
74657;DHT22;63185;45.642;13.764;2023-03-23T06:08:56;15.10;54.10
74657;DHT22;63185;45.642;13.764;2023-03-23T06:11:22;15.10;54.50
74657;DHT22;63185;45.642;13.764;2023-03-23T06:13:48;15.20;54.10
74657;DHT22;63185;45.642;13.764;2023-03-23T06:16:14;15.20;54.50
74657;DHT22;63185;45.642;13.764;2023-03-23T06:18:40;15.20;54.70
74657;DHT22;63185;45.642;13.764;2023-03-23T06:21:06;15.30;55.10
74657;DHT22;63185;45.642;13.764;2023-03-23T06:23:34;15.50;54.90
74657;DHT22;63185;45.642;13.764;2023-03-23T06:26:03;15.60;54.70
74657;DHT22;63185;45.642;13.764;2023-03-23T06:28:29;15.70;54.40
74657;DHT22;63185;45.642;13.764;2023-03-23T06:31:02;15.90;53.70
74657;DHT22;63185;45.642;13.764;2023-03-23T06:33:30;16.00;52.70
74657;DHT22;63185;45.642;13.764;2023-03-23T06:35:56;16.10;52.70
74657;DHT22;63185;45.642;13.764;2023-03-23T06:38:23;16.30;52.60
74657;DHT22;63185;45.642;13.764;2023-03-23T06:40:54;16.40;51.70
74657;DHT22;63185;45.642;13.764;2023-03-23T06:43:21;16.40;51.50
74657;DHT22;63185;45.642;13.764;2023-03-23T06:45:47;16.50;51.30
74657;DHT22;63185;45.642;13.764;2023-03-23T06:48:14;16.60;50.90
74657;DHT22;63185;45.642;13.764;2023-03-23T06:50:43;16.70;51.00
74657;DHT22;63185;45.642;13.764;2023-03-23T06:53:10;16.60;51.40
74657;DHT22;63185;45.642;13.764;2023-03-23T06:55:42;16.60;51.60
74657;DHT22;63185;45.642;13.764;2023-03-23T06:58:08;16.70;51.80
74657;DHT22;63185;45.642;13.764;2023-03-23T07:00:34;16.80;52.40
74657;DHT22;63185;45.642;13.764;2023-03-23T07:03:00;16.80;53.10
74657;DHT22;63185;45.642;13.764;2023-03-23T07:05:27;16.80;53.50
74657;DHT22;63185;45.642;13.764;2023-03-23T07:07:53;16.70;54.50
74657;DHT22;63185;45.642;13.764;2023-03-23T07:10:18;16.60;55.10
74657;DHT22;63185;45.642;13.764;2023-03-23T07:12:44;16.40;55.40
74657;DHT22;63185;45.642;13.764;2023-03-23T07:15:11;16.30;55.30
74657;DHT22;63185;45.642;13.764;2023-03-23T07:17:39;16.40;54.80
74657;DHT22;63185;45.642;13.764;2023-03-23T07:20:06;16.40;55.00
74657;DHT22;63185;45.642;13.764;2023-03-23T07:22:33;16.50;54.20
74657;DHT22;63185;45.642;13.764;2023-03-23T07:24:59;16.40;54.70
74657;DHT22;63185;45.642;13.764;2023-03-23T07:27:25;16.30;54.70
74657;DHT22;63185;45.642;13.764;2023-03-23T07:29:50;16.30;54.80
74657;DHT22;63185;45.642;13.764;2023-03-23T07:32:16;16.30;54.80
74657;DHT22;63185;45.642;13.764;2023-03-23T07:34:43;16.40;54.30
74657;DHT22;63185;45.642;13.764;2023-03-23T07:37:09;16.50;54.00
74657;DHT22;63185;45.642;13.764;2023-03-23T07:39:35;16.60;53.60
74657;DHT22;63185;45.642;13.764;2023-03-23T07:42:01;16.70;53.40
74657;DHT22;63185;45.642;13.764;2023-03-23T07:44:27;16.90;52.80
74657;DHT22;63185;45.642;13.764;2023-03-23T07:46:53;17.10;52.40
74657;DHT22;63185;45.642;13.764;2023-03-23T07:49:19;17.10;52.20
74657;DHT22;63185;45.642;13.764;2023-03-23T07:51:45;17.10;51.90
74657;DHT22;63185;45.642;13.764;2023-03-23T07:54:11;17.20;52.40
74657;DHT22;63185;45.642;13.764;2023-03-23T07:56:38;17.30;52.10
74657;DHT22;63185;45.642;13.764;2023-03-23T07:59:07;17.10;52.40
74657;DHT22;63185;45.642;13.764;2023-03-23T08:01:33;17.10;52.90
74657;DHT22;63185;45.642;13.764;2023-03-23T08:03:59;17.10;53.10
74657;DHT22;63185;45.642;13.764;2023-03-23T08:06:25;17.20;52.50
74657;DHT22;63185;45.642;13.764;2023-03-23T08:08:52;17.20;52.00
74657;DHT22;63185;45.642;13.764;2023-03-23T08:11:18;17.20;52.40
74657;DHT22;63185;45.642;13.764;2023-03-23T08:13:46;17.40;51.50
74657;DHT22;63185;45.642;13.764;2023-03-23T08:16:11;17.50;50.50
74657;DHT22;63185;45.642;13.764;2023-03-23T08:18:39;17.40;51.00
74657;DHT22;63185;45.642;13.764;2023-03-23T08:21:06;17.20;52.00
74657;DHT22;63185;45.642;13.764;2023-03-23T08:23:35;17.40;51.90
74657;DHT22;63185;45.642;13.764;2023-03-23T08:26:03;17.70;51.40
74657;DHT22;63185;45.642;13.764;2023-03-23T08:28:29;17.60;51.50
74657;DHT22;63185;45.642;13.764;2023-03-23T08:30:54;17.60;50.50
74657;DHT22;63185;45.642;13.764;2023-03-23T08:33:20;17.70;49.80
74657;DHT22;63185;45.642;13.764;2023-03-23T08:35:55;17.70;49.10
74657;DHT22;63185;45.642;13.764;2023-03-23T08:38:20;17.60;49.70
74657;DHT22;63185;45.642;13.764;2023-03-23T08:40:46;17.80;49.40
74657;DHT22;63185;45.642;13.764;2023-03-23T08:43:13;18.10;48.50
74657;DHT22;63185;45.642;13.764;2023-03-23T08:45:39;18.30;47.70
74657;DHT22;63185;45.642;13.764;2023-03-23T08:48:05;18.50;46.70
74657;DHT22;63185;45.642;13.764;2023-03-23T08:50:33;18.40;46.40
74657;DHT22;63185;45.642;13.764;2023-03-23T08:52:59;18.40;46.40
74657;DHT22;63185;45.642;13.764;2023-03-23T08:55:25;18.30;46.80
74657;DHT22;63185;45.642;13.764;2023-03-23T08:57:52;18.00;47.60
74657;DHT22;63185;45.642;13.764;2023-03-23T09:00:20;18.10;47.40
74657;DHT22;63185;45.642;13.764;2023-03-23T09:02:48;18.00;48.20
74657;DHT22;63185;45.642;13.764;2023-03-23T09:05:16;18.00;48.50
74657;DHT22;63185;45.642;13.764;2023-03-23T09:07:44;18.10;47.40
74657;DHT22;63185;45.642;13.764;2023-03-23T09:10:12;18.10;47.90
74657;DHT22;63185;45.642;13.764;2023-03-23T09:12:38;18.20;48.30
74657;DHT22;63185;45.642;13.764;2023-03-23T09:15:06;18.20;48.50
74657;DHT22;63185;45.642;13.764;2023-03-23T09:17:44;18.10;47.50
74657;DHT22;63185;45.642;13.764;2023-03-23T09:20:13;17.90;48.40
74657;DHT22;63185;45.642;13.764;2023-03-23T09:22:41;17.90;49.80
74657;DHT22;63185;45.642;13.764;2023-03-23T09:25:12;17.80;51.30
74657;DHT22;63185;45.642;13.764;2023-03-23T09:27:39;17.80;49.70
74657;DHT22;63185;45.642;13.764;2023-03-23T09:30:08;17.80;50.30
74657;DHT22;63185;45.642;13.764;2023-03-23T09:32:36;17.80;52.20
74657;DHT22;63185;45.642;13.764;2023-03-23T09:35:05;17.80;51.90
74657;DHT22;63185;45.642;13.764;2023-03-23T09:37:34;18.00;50.50
74657;DHT22;63185;45.642;13.764;2023-03-23T09:40:02;17.90;50.50
74657;DHT22;63185;45.642;13.764;2023-03-23T09:48:51;18.20;50.80
74657;DHT22;63185;45.642;13.764;2023-03-23T09:56:44;17.50;52.60
74657;DHT22;63185;45.642;13.764;2023-03-23T10:01:48;17.30;52.20
74657;DHT22;63185;45.642;13.764;2023-03-23T10:06:59;17.10;55.40
74657;DHT22;63185;45.642;13.764;2023-03-23T10:09:26;17.10;55.30
74657;DHT22;63185;45.642;13.764;2023-03-23T10:22:45;16.90;53.80
74657;DHT22;63185;45.642;13.764;2023-03-23T10:32:56;16.90;56.70
74657;DHT22;63185;45.642;13.764;2023-03-23T10:38:06;17.40;54.50
74657;DHT22;63185;45.642;13.764;2023-03-23T10:40:43;17.50;54.80
74657;DHT22;63185;45.642;13.764;2023-03-23T10:43:09;17.50;52.20
74657;DHT22;63185;45.642;13.764;2023-03-23T10:45:34;17.60;52.40
74657;DHT22;63185;45.642;13.764;2023-03-23T10:48:25;17.80;52.40
74657;DHT22;63185;45.642;13.764;2023-03-23T10:50:55;17.90;51.90
74657;DHT22;63185;45.642;13.764;2023-03-23T10:53:28;17.90;53.30
74657;DHT22;63185;45.642;13.764;2023-03-23T10:55:58;18.20;51.90
74657;DHT22;63185;45.642;13.764;2023-03-23T10:58:33;18.30;51.00
74657;DHT22;63185;45.642;13.764;2023-03-23T11:01:02;18.80;50.30
74657;DHT22;63185;45.642;13.764;2023-03-23T11:03:47;19.10;48.70
74657;DHT22;63185;45.642;13.764;2023-03-23T11:06:27;19.10;48.20
74657;DHT22;63185;45.642;13.764;2023-03-23T11:09:00;19.00;48.10
74657;DHT22;63185;45.642;13.764;2023-03-23T11:14:01;18.90;48.00
74657;DHT22;63185;45.642;13.764;2023-03-23T11:16:32;19.00;47.90
74657;DHT22;63185;45.642;13.764;2023-03-23T11:19:12;18.90;47.30
74657;DHT22;63185;45.642;13.764;2023-03-23T11:21:39;19.00;47.90
74657;DHT22;63185;45.642;13.764;2023-03-23T11:24:07;18.90;47.00
74657;DHT22;63185;45.642;13.764;2023-03-23T11:26:35;18.60;50.40
74657;DHT22;63185;45.642;13.764;2023-03-23T11:29:09;18.60;50.10
74657;DHT22;63185;45.642;13.764;2023-03-23T11:34:34;18.30;52.00
74657;DHT22;63185;45.642;13.764;2023-03-23T11:37:31;18.00;51.30
74657;DHT22;63185;45.642;13.764;2023-03-23T11:43:29;18.10;52.10
74657;DHT22;63185;45.642;13.764;2023-03-23T11:48:21;17.90;52.60
74657;DHT22;63185;45.642;13.764;2023-03-23T11:50:51;17.90;53.20
74657;DHT22;63185;45.642;13.764;2023-03-23T11:56:08;17.90;50.70
74657;DHT22;63185;45.642;13.764;2023-03-23T11:58:36;17.90;50.80
74657;DHT22;63185;45.642;13.764;2023-03-23T12:01:14;18.00;51.60
74657;DHT22;63185;45.642;13.764;2023-03-23T12:06:59;18.20;50.70
74657;DHT22;63185;45.642;13.764;2023-03-23T12:26:33;19.00;45.50
74657;DHT22;63185;45.642;13.764;2023-03-23T12:32:18;19.00;46.50
74657;DHT22;63185;45.642;13.764;2023-03-23T12:48:17;18.80;43.80
74657;DHT22;63185;45.642;13.764;2023-03-23T12:56:49;19.40;43.20
74657;DHT22;63185;45.642;13.764;2023-03-23T12:59:39;19.50;43.20
74657;DHT22;63185;45.642;13.764;2023-03-23T13:02:22;19.90;43.20
74657;DHT22;63185;45.642;13.764;2023-03-23T13:04:56;20.10;42.30
74657;DHT22;63185;45.642;13.764;2023-03-23T13:07:30;20.20;40.00
74657;DHT22;63185;45.642;13.764;2023-03-23T13:12:29;20.30;39.90
74657;DHT22;63185;45.642;13.764;2023-03-23T13:14:59;20.30;40.40
74657;DHT22;63185;45.642;13.764;2023-03-23T13:17:42;20.40;41.00
74657;DHT22;63185;45.642;13.764;2023-03-23T13:26:03;20.80;41.10
74657;DHT22;63185;45.642;13.764;2023-03-23T13:28:49;20.60;41.40
74657;DHT22;63185;45.642;13.764;2023-03-23T13:31:20;20.30;43.70
74657;DHT22;63185;45.642;13.764;2023-03-23T13:33:51;20.00;43.70
74657;DHT22;63185;45.642;13.764;2023-03-23T13:36:29;20.20;42.10
74657;DHT22;63185;45.642;13.764;2023-03-23T13:38:56;20.50;41.90
74657;DHT22;63185;45.642;13.764;2023-03-23T13:41:25;20.40;42.80
74657;DHT22;63185;45.642;13.764;2023-03-23T13:43:51;20.50;41.70
74657;DHT22;63185;45.642;13.764;2023-03-23T13:48:47;20.70;39.60
74657;DHT22;63185;45.642;13.764;2023-03-23T13:57:02;20.80;39.60
74657;DHT22;63185;45.642;13.764;2023-03-23T13:59:45;20.60;41.30
74657;DHT22;63185;45.642;13.764;2023-03-23T14:02:41;20.50;41.30
74657;DHT22;63185;45.642;13.764;2023-03-23T14:05:32;20.40;40.00
74657;DHT22;63185;45.642;13.764;2023-03-23T14:13:06;20.10;43.50
74657;DHT22;63185;45.642;13.764;2023-03-23T14:15:55;20.00;43.80
74657;DHT22;63185;45.642;13.764;2023-03-23T14:18:23;19.60;44.90
74657;DHT22;63185;45.642;13.764;2023-03-23T14:20:49;19.50;44.90
74657;DHT22;63185;45.642;13.764;2023-03-23T14:23:19;19.50;47.50
74657;DHT22;63185;45.642;13.764;2023-03-23T14:26:08;19.70;45.30
74657;DHT22;63185;45.642;13.764;2023-03-23T14:28:41;19.80;42.50
74657;DHT22;63185;45.642;13.764;2023-03-23T14:31:23;19.90;42.40
74657;DHT22;63185;45.642;13.764;2023-03-23T14:33:50;20.10;44.00
74657;DHT22;63185;45.642;13.764;2023-03-23T14:36:26;20.40;42.90
74657;DHT22;63185;45.642;13.764;2023-03-23T14:41:43;20.80;39.20
74657;DHT22;63185;45.642;13.764;2023-03-23T14:44:16;20.80;41.70
74657;DHT22;63185;45.642;13.764;2023-03-23T14:46:44;20.50;41.00
74657;DHT22;63185;45.642;13.764;2023-03-23T14:49:17;20.60;42.90
74657;DHT22;63185;45.642;13.764;2023-03-23T14:51:50;20.80;42.50
74657;DHT22;63185;45.642;13.764;2023-03-23T14:54:27;20.50;42.70
74657;DHT22;63185;45.642;13.764;2023-03-23T14:56:55;20.50;45.40
74657;DHT22;63185;45.642;13.764;2023-03-23T14:59:21;20.60;44.60
74657;DHT22;63185;45.642;13.764;2023-03-23T15:01:49;21.00;42.60
74657;DHT22;63185;45.642;13.764;2023-03-23T15:04:21;21.30;40.60
74657;DHT22;63185;45.642;13.764;2023-03-23T15:06:56;21.60;37.20
74657;DHT22;63185;45.642;13.764;2023-03-23T15:09:24;21.90;38.80
74657;DHT22;63185;45.642;13.764;2023-03-23T15:11:58;22.10;39.20
74657;DHT22;63185;45.642;13.764;2023-03-23T15:14:31;22.40;39.20
74657;DHT22;63185;45.642;13.764;2023-03-23T15:16:59;22.90;35.80
74657;DHT22;63185;45.642;13.764;2023-03-23T15:19:36;23.10;36.70
74657;DHT22;63185;45.642;13.764;2023-03-23T15:24:41;24.50;34.50
74657;DHT22;63185;45.642;13.764;2023-03-23T15:27:17;25.60;32.20
74657;DHT22;63185;45.642;13.764;2023-03-23T15:30:18;26.40;31.00
74657;DHT22;63185;45.642;13.764;2023-03-23T15:32:53;27.10;30.50
74657;DHT22;63185;45.642;13.764;2023-03-23T15:35:21;27.60;29.00
74657;DHT22;63185;45.642;13.764;2023-03-23T15:38:05;27.30;30.60
74657;DHT22;63185;45.642;13.764;2023-03-23T15:40:37;27.00;30.60
74657;DHT22;63185;45.642;13.764;2023-03-23T15:45:58;26.60;31.70
74657;DHT22;63185;45.642;13.764;2023-03-23T15:48:54;27.60;30.00
74657;DHT22;63185;45.642;13.764;2023-03-23T15:51:21;28.20;28.40
74657;DHT22;63185;45.642;13.764;2023-03-23T15:53:50;27.60;27.90
74657;DHT22;63185;45.642;13.764;2023-03-23T15:56:16;26.90;29.00
74657;DHT22;63185;45.642;13.764;2023-03-23T15:58:43;27.30;28.80
74657;DHT22;63185;45.642;13.764;2023-03-23T16:01:15;26.20;30.90
74657;DHT22;63185;45.642;13.764;2023-03-23T16:06:32;27.10;30.80
74657;DHT22;63185;45.642;13.764;2023-03-23T16:08:58;26.60;31.00
74657;DHT22;63185;45.642;13.764;2023-03-23T16:11:27;26.70;30.90
74657;DHT22;63185;45.642;13.764;2023-03-23T16:13:53;27.10;30.20
74657;DHT22;63185;45.642;13.764;2023-03-23T16:16:36;26.90;29.80
74657;DHT22;63185;45.642;13.764;2023-03-23T16:19:02;27.10;29.60
74657;DHT22;63185;45.642;13.764;2023-03-23T16:21:28;25.80;30.40
74657;DHT22;63185;45.642;13.764;2023-03-23T16:23:54;26.00;30.00
74657;DHT22;63185;45.642;13.764;2023-03-23T16:26:20;26.10;29.00
74657;DHT22;63185;45.642;13.764;2023-03-23T16:28:46;26.10;28.70
74657;DHT22;63185;45.642;13.764;2023-03-23T16:31:12;26.20;29.10
74657;DHT22;63185;45.642;13.764;2023-03-23T16:33:37;26.70;28.70
74657;DHT22;63185;45.642;13.764;2023-03-23T16:36:04;27.20;28.30
74657;DHT22;63185;45.642;13.764;2023-03-23T16:38:30;27.40;28.60
74657;DHT22;63185;45.642;13.764;2023-03-23T16:40:55;27.30;28.00
74657;DHT22;63185;45.642;13.764;2023-03-23T16:43:21;26.70;29.50
74657;DHT22;63185;45.642;13.764;2023-03-23T16:45:47;26.70;29.90
74657;DHT22;63185;45.642;13.764;2023-03-23T16:48:14;26.50;28.00
74657;DHT22;63185;45.642;13.764;2023-03-23T16:50:41;26.60;28.40
74657;DHT22;63185;45.642;13.764;2023-03-23T16:53:08;26.70;26.80
74657;DHT22;63185;45.642;13.764;2023-03-23T16:55:34;26.80;27.00
74657;DHT22;63185;45.642;13.764;2023-03-23T16:58:01;26.90;26.80
74657;DHT22;63185;45.642;13.764;2023-03-23T17:00:26;26.60;27.10
74657;DHT22;63185;45.642;13.764;2023-03-23T17:02:54;26.50;28.00
74657;DHT22;63185;45.642;13.764;2023-03-23T17:05:25;25.60;28.10
74657;DHT22;63185;45.642;13.764;2023-03-23T17:07:52;24.80;28.50
74657;DHT22;63185;45.642;13.764;2023-03-23T17:10:21;23.70;30.30
74657;DHT22;63185;45.642;13.764;2023-03-23T17:12:47;22.70;32.30
74657;DHT22;63185;45.642;13.764;2023-03-23T17:15:12;22.00;34.90
74657;DHT22;63185;45.642;13.764;2023-03-23T17:17:38;21.40;36.70
74657;DHT22;63185;45.642;13.764;2023-03-23T17:20:05;21.00;38.40
74657;DHT22;63185;45.642;13.764;2023-03-23T17:22:32;20.50;40.10
74657;DHT22;63185;45.642;13.764;2023-03-23T17:24:58;20.10;41.20
74657;DHT22;63185;45.642;13.764;2023-03-23T17:27:24;19.70;39.80
74657;DHT22;63185;45.642;13.764;2023-03-23T17:29:50;19.40;41.80
74657;DHT22;63185;45.642;13.764;2023-03-23T17:32:16;19.10;44.40
74657;DHT22;63185;45.642;13.764;2023-03-23T17:34:41;18.80;46.80
74657;DHT22;63185;45.642;13.764;2023-03-23T17:37:07;18.60;47.30
74657;DHT22;63185;45.642;13.764;2023-03-23T17:39:33;18.50;47.70
74657;DHT22;63185;45.642;13.764;2023-03-23T17:41:59;18.20;48.60
74657;DHT22;63185;45.642;13.764;2023-03-23T17:44:26;18.00;49.60
74657;DHT22;63185;45.642;13.764;2023-03-23T17:46:52;17.70;51.30
74657;DHT22;63185;45.642;13.764;2023-03-23T17:49:17;17.50;52.60
74657;DHT22;63185;45.642;13.764;2023-03-23T17:51:43;17.40;51.60
74657;DHT22;63185;45.642;13.764;2023-03-23T17:54:10;17.30;51.50
74657;DHT22;63185;45.642;13.764;2023-03-23T17:56:36;17.20;51.20
74657;DHT22;63185;45.642;13.764;2023-03-23T17:59:02;17.10;52.70
74657;DHT22;63185;45.642;13.764;2023-03-23T18:01:27;17.00;53.80